Neuse, North Carolina
Current Conditions -  °F | °C
As of 4:51 PM on Friday 28 Nov 2014 (Local Time) from KRDU Reporting Station
Scattered Clouds Scattered Clouds  
Wind Chill: 41°   Ceiling: Unl
Heat Index: 41°   Visibility: 10mi
Dew Point: 20°   Wind: 0mph
Humidity: 43%   Direction: NA
Pressure: 30.3"   Gusts: NA
Location:  35.8146°N, 78.5826°W
Report Text: KRDU 282151Z 00000KT 10SM FEW200 SCT250 05/M07 A3030 RMK AO2 SLP263 T00501067
Loading
Personal Weather Stations






























Interactive Weather Map New forecast layout! Learn more

10-Day Weather Forecast

Advertisements
Track Severe Weather on mobile